sensor_id;sensor_type;location;lat;lon;timestamp;P1;durP1;ratioP1;P2;durP2;ratioP2
47021;SDS011;32779;52.264;6.154;2022-07-21T00:00:29;22.55;;;12.48;;
47021;SDS011;32779;52.264;6.154;2022-07-21T00:02:55;25.83;;;13.15;;
47021;SDS011;32779;52.264;6.154;2022-07-21T00:05:23;20.52;;;12.55;;
47021;SDS011;32779;52.264;6.154;2022-07-21T00:07:50;18.92;;;12.43;;
47021;SDS011;32779;52.264;6.154;2022-07-21T00:10:16;19.42;;;12.13;;
47021;SDS011;32779;52.264;6.154;2022-07-21T00:12:42;18.48;;;13.75;;
47021;SDS011;32779;52.264;6.154;2022-07-21T00:15:08;19.33;;;12.02;;
47021;SDS011;32779;52.264;6.154;2022-07-21T00:17:35;26.55;;;13.00;;
47021;SDS011;32779;52.264;6.154;2022-07-21T00:20:02;24.35;;;13.55;;
47021;SDS011;32779;52.264;6.154;2022-07-21T00:22:29;22.63;;;13.57;;
47021;SDS011;32779;52.264;6.154;2022-07-21T00:24:54;17.33;;;12.10;;
47021;SDS011;32779;52.264;6.154;2022-07-21T00:27:20;18.42;;;12.57;;
47021;SDS011;32779;52.264;6.154;2022-07-21T00:29:46;21.90;;;13.00;;
47021;SDS011;32779;52.264;6.154;2022-07-21T00:32:11;18.52;;;12.15;;
47021;SDS011;32779;52.264;6.154;2022-07-21T00:34:37;19.40;;;12.05;;
47021;SDS011;32779;52.264;6.154;2022-07-21T00:37:02;16.92;;;11.43;;
47021;SDS011;32779;52.264;6.154;2022-07-21T00:39:28;19.55;;;11.82;;
47021;SDS011;32779;52.264;6.154;2022-07-21T00:41:54;17.58;;;12.55;;
47021;SDS011;32779;52.264;6.154;2022-07-21T00:44:20;17.95;;;11.82;;
47021;SDS011;32779;52.264;6.154;2022-07-21T00:46:50;15.65;;;12.02;;
47021;SDS011;32779;52.264;6.154;2022-07-21T00:49:16;19.42;;;12.45;;
47021;SDS011;32779;52.264;6.154;2022-07-21T00:51:42;14.93;;;11.52;;
47021;SDS011;32779;52.264;6.154;2022-07-21T00:54:08;18.40;;;12.38;;
47021;SDS011;32779;52.264;6.154;2022-07-21T00:56:34;19.65;;;12.52;;
47021;SDS011;32779;52.264;6.154;2022-07-21T00:59:00;18.58;;;12.10;;
47021;SDS011;32779;52.264;6.154;2022-07-21T01:01:26;20.23;;;13.18;;
47021;SDS011;32779;52.264;6.154;2022-07-21T01:03:52;18.48;;;11.82;;
47021;SDS011;32779;52.264;6.154;2022-07-21T01:06:17;21.67;;;12.45;;
47021;SDS011;32779;52.264;6.154;2022-07-21T01:08:43;17.13;;;12.25;;
47021;SDS011;32779;52.264;6.154;2022-07-21T01:11:08;17.27;;;11.93;;
47021;SDS011;32779;52.264;6.154;2022-07-21T01:13:34;20.10;;;12.63;;
47021;SDS011;32779;52.264;6.154;2022-07-21T01:16:06;17.95;;;11.65;;
47021;SDS011;32779;52.264;6.154;2022-07-21T01:18:32;19.52;;;12.85;;
47021;SDS011;32779;52.264;6.154;2022-07-21T01:20:58;21.27;;;13.02;;
47021;SDS011;32779;52.264;6.154;2022-07-21T01:23:28;18.75;;;12.15;;
47021;SDS011;32779;52.264;6.154;2022-07-21T01:25:54;22.65;;;12.43;;
47021;SDS011;32779;52.264;6.154;2022-07-21T01:28:20;19.13;;;13.00;;
47021;SDS011;32779;52.264;6.154;2022-07-21T01:30:45;21.42;;;13.00;;
47021;SDS011;32779;52.264;6.154;2022-07-21T01:33:11;15.60;;;11.25;;
47021;SDS011;32779;52.264;6.154;2022-07-21T01:35:36;15.20;;;11.20;;
47021;SDS011;32779;52.264;6.154;2022-07-21T01:38:02;17.67;;;12.00;;
47021;SDS011;32779;52.264;6.154;2022-07-21T01:40:28;18.10;;;12.18;;
47021;SDS011;32779;52.264;6.154;2022-07-21T01:43:12;15.50;;;11.80;;
47021;SDS011;32779;52.264;6.154;2022-07-21T01:45:38;19.63;;;12.63;;
47021;SDS011;32779;52.264;6.154;2022-07-21T01:48:05;18.55;;;11.98;;
47021;SDS011;32779;52.264;6.154;2022-07-21T01:50:30;22.98;;;12.75;;
47021;SDS011;32779;52.264;6.154;2022-07-21T01:52:57;17.65;;;12.63;;
47021;SDS011;32779;52.264;6.154;2022-07-21T01:55:23;17.83;;;11.48;;
47021;SDS011;32779;52.264;6.154;2022-07-21T01:57:50;21.38;;;12.73;;
47021;SDS011;32779;52.264;6.154;2022-07-21T02:00:16;18.92;;;12.90;;
47021;SDS011;32779;52.264;6.154;2022-07-21T02:02:42;16.48;;;11.25;;
47021;SDS011;32779;52.264;6.154;2022-07-21T02:05:08;17.27;;;12.25;;
47021;SDS011;32779;52.264;6.154;2022-07-21T02:07:33;16.20;;;11.35;;
47021;SDS011;32779;52.264;6.154;2022-07-21T02:09:59;18.15;;;11.80;;
47021;SDS011;32779;52.264;6.154;2022-07-21T02:12:25;17.17;;;11.35;;
47021;SDS011;32779;52.264;6.154;2022-07-21T02:14:50;15.70;;;11.73;;
47021;SDS011;32779;52.264;6.154;2022-07-21T02:17:16;17.60;;;11.80;;
47021;SDS011;32779;52.264;6.154;2022-07-21T02:19:42;17.42;;;11.70;;
47021;SDS011;32779;52.264;6.154;2022-07-21T02:22:07;19.40;;;12.18;;
47021;SDS011;32779;52.264;6.154;2022-07-21T02:24:33;18.98;;;12.32;;
47021;SDS011;32779;52.264;6.154;2022-07-21T02:26:59;16.48;;;11.40;;
47021;SDS011;32779;52.264;6.154;2022-07-21T02:29:25;17.98;;;11.77;;
47021;SDS011;32779;52.264;6.154;2022-07-21T02:31:51;15.95;;;10.60;;
47021;SDS011;32779;52.264;6.154;2022-07-21T02:34:17;16.92;;;10.27;;
47021;SDS011;32779;52.264;6.154;2022-07-21T02:36:42;13.93;;;9.80;;
47021;SDS011;32779;52.264;6.154;2022-07-21T02:39:08;12.90;;;9.05;;
47021;SDS011;32779;52.264;6.154;2022-07-21T02:41:33;13.48;;;9.00;;
47021;SDS011;32779;52.264;6.154;2022-07-21T02:43:59;13.07;;;8.80;;
47021;SDS011;32779;52.264;6.154;2022-07-21T02:46:24;11.20;;;7.65;;
47021;SDS011;32779;52.264;6.154;2022-07-21T02:48:50;12.38;;;7.28;;
47021;SDS011;32779;52.264;6.154;2022-07-21T02:51:15;8.98;;;6.40;;
47021;SDS011;32779;52.264;6.154;2022-07-21T02:53:41;9.23;;;6.85;;
47021;SDS011;32779;52.264;6.154;2022-07-21T02:56:06;9.90;;;6.00;;
47021;SDS011;32779;52.264;6.154;2022-07-21T02:58:32;9.18;;;6.82;;
47021;SDS011;32779;52.264;6.154;2022-07-21T03:01:02;11.50;;;6.65;;
47021;SDS011;32779;52.264;6.154;2022-07-21T03:03:32;12.25;;;7.53;;
47021;SDS011;32779;52.264;6.154;2022-07-21T03:06:00;9.70;;;7.10;;
47021;SDS011;32779;52.264;6.154;2022-07-21T03:08:26;10.25;;;6.85;;
47021;SDS011;32779;52.264;6.154;2022-07-21T03:10:53;9.57;;;6.78;;
47021;SDS011;32779;52.264;6.154;2022-07-21T03:13:19;10.95;;;7.40;;
47021;SDS011;32779;52.264;6.154;2022-07-21T03:15:45;9.68;;;8.02;;
47021;SDS011;32779;52.264;6.154;2022-07-21T03:18:10;10.40;;;7.72;;
47021;SDS011;32779;52.264;6.154;2022-07-21T03:20:37;12.40;;;8.82;;
47021;SDS011;32779;52.264;6.154;2022-07-21T03:23:04;13.35;;;8.65;;
47021;SDS011;32779;52.264;6.154;2022-07-21T03:25:31;10.18;;;7.60;;
47021;SDS011;32779;52.264;6.154;2022-07-21T03:27:57;10.68;;;7.47;;
47021;SDS011;32779;52.264;6.154;2022-07-21T03:30:23;10.98;;;8.20;;
47021;SDS011;32779;52.264;6.154;2022-07-21T03:32:50;9.82;;;7.68;;
47021;SDS011;32779;52.264;6.154;2022-07-21T03:35:16;13.75;;;8.23;;
47021;SDS011;32779;52.264;6.154;2022-07-21T03:37:43;10.40;;;8.43;;
47021;SDS011;32779;52.264;6.154;2022-07-21T03:40:11;13.50;;;8.30;;
47021;SDS011;32779;52.264;6.154;2022-07-21T03:42:39;12.55;;;8.70;;
47021;SDS011;32779;52.264;6.154;2022-07-21T03:45:05;10.05;;;7.50;;
47021;SDS011;32779;52.264;6.154;2022-07-21T03:47:31;15.50;;;9.10;;
47021;SDS011;32779;52.264;6.154;2022-07-21T03:49:57;12.70;;;9.23;;
47021;SDS011;32779;52.264;6.154;2022-07-21T03:52:22;12.48;;;8.50;;
47021;SDS011;32779;52.264;6.154;2022-07-21T03:54:48;15.00;;;9.88;;
47021;SDS011;32779;52.264;6.154;2022-07-21T03:57:13;14.02;;;8.90;;
47021;SDS011;32779;52.264;6.154;2022-07-21T03:59:39;12.70;;;9.25;;
47021;SDS011;32779;52.264;6.154;2022-07-21T04:02:04;15.65;;;10.27;;
47021;SDS011;32779;52.264;6.154;2022-07-21T04:04:30;15.13;;;9.35;;
47021;SDS011;32779;52.264;6.154;2022-07-21T04:06:55;15.07;;;10.20;;
47021;SDS011;32779;52.264;6.154;2022-07-21T04:09:21;16.00;;;10.27;;
47021;SDS011;32779;52.264;6.154;2022-07-21T04:11:46;13.38;;;10.05;;
47021;SDS011;32779;52.264;6.154;2022-07-21T04:14:12;14.80;;;9.98;;
47021;SDS011;32779;52.264;6.154;2022-07-21T04:16:38;17.88;;;11.35;;
47021;SDS011;32779;52.264;6.154;2022-07-21T04:19:04;21.17;;;11.15;;
47021;SDS011;32779;52.264;6.154;2022-07-21T04:21:29;15.85;;;11.43;;
47021;SDS011;32779;52.264;6.154;2022-07-21T04:23:55;17.90;;;13.10;;
47021;SDS011;32779;52.264;6.154;2022-07-21T04:26:20;19.13;;;12.32;;
47021;SDS011;32779;52.264;6.154;2022-07-21T04:28:46;17.95;;;12.63;;
47021;SDS011;32779;52.264;6.154;2022-07-21T04:31:11;18.75;;;13.18;;
47021;SDS011;32779;52.264;6.154;2022-07-21T04:33:37;21.38;;;12.73;;
47021;SDS011;32779;52.264;6.154;2022-07-21T04:36:03;17.38;;;12.05;;
47021;SDS011;32779;52.264;6.154;2022-07-21T04:38:28;18.77;;;13.48;;
47021;SDS011;32779;52.264;6.154;2022-07-21T04:40:54;18.90;;;13.05;;
47021;SDS011;32779;52.264;6.154;2022-07-21T04:43:20;22.60;;;13.80;;
47021;SDS011;32779;52.264;6.154;2022-07-21T04:45:45;20.00;;;12.65;;
47021;SDS011;32779;52.264;6.154;2022-07-21T04:48:11;20.83;;;14.40;;
47021;SDS011;32779;52.264;6.154;2022-07-21T04:50:36;20.92;;;14.07;;
47021;SDS011;32779;52.264;6.154;2022-07-21T04:53:02;18.30;;;14.10;;
47021;SDS011;32779;52.264;6.154;2022-07-21T04:55:27;17.95;;;13.18;;
47021;SDS011;32779;52.264;6.154;2022-07-21T04:57:54;17.65;;;13.13;;
47021;SDS011;32779;52.264;6.154;2022-07-21T05:00:21;20.23;;;14.30;;
47021;SDS011;32779;52.264;6.154;2022-07-21T05:02:48;22.08;;;13.43;;
47021;SDS011;32779;52.264;6.154;2022-07-21T05:05:15;20.70;;;14.25;;
47021;SDS011;32779;52.264;6.154;2022-07-21T05:07:41;22.00;;;14.73;;
47021;SDS011;32779;52.264;6.154;2022-07-21T05:10:08;21.58;;;15.25;;
47021;SDS011;32779;52.264;6.154;2022-07-21T05:12:36;23.95;;;14.63;;
47021;SDS011;32779;52.264;6.154;2022-07-21T05:15:02;20.33;;;13.27;;
47021;SDS011;32779;52.264;6.154;2022-07-21T05:17:32;24.52;;;15.13;;
47021;SDS011;32779;52.264;6.154;2022-07-21T05:19:59;27.02;;;15.55;;
47021;SDS011;32779;52.264;6.154;2022-07-21T05:22:25;22.40;;;14.18;;
47021;SDS011;32779;52.264;6.154;2022-07-21T05:24:51;22.33;;;14.25;;
47021;SDS011;32779;52.264;6.154;2022-07-21T05:27:17;21.35;;;15.52;;
47021;SDS011;32779;52.264;6.154;2022-07-21T05:29:42;19.35;;;14.63;;
47021;SDS011;32779;52.264;6.154;2022-07-21T05:32:08;21.17;;;14.57;;
47021;SDS011;32779;52.264;6.154;2022-07-21T05:34:33;23.25;;;14.23;;
47021;SDS011;32779;52.264;6.154;2022-07-21T05:36:59;24.73;;;15.43;;
47021;SDS011;32779;52.264;6.154;2022-07-21T05:39:25;24.92;;;15.30;;
47021;SDS011;32779;52.264;6.154;2022-07-21T05:41:50;26.35;;;15.98;;
47021;SDS011;32779;52.264;6.154;2022-07-21T05:44:16;27.95;;;16.52;;
47021;SDS011;32779;52.264;6.154;2022-07-21T05:46:41;23.88;;;15.75;;
47021;SDS011;32779;52.264;6.154;2022-07-21T05:49:07;25.70;;;16.58;;
47021;SDS011;32779;52.264;6.154;2022-07-21T05:51:32;29.75;;;16.23;;
47021;SDS011;32779;52.264;6.154;2022-07-21T05:53:58;25.58;;;17.33;;
47021;SDS011;32779;52.264;6.154;2022-07-21T05:56:23;26.65;;;17.48;;
47021;SDS011;32779;52.264;6.154;2022-07-21T05:58:49;29.33;;;17.80;;
47021;SDS011;32779;52.264;6.154;2022-07-21T06:01:14;26.85;;;17.33;;
47021;SDS011;32779;52.264;6.154;2022-07-21T06:03:45;31.63;;;18.88;;
47021;SDS011;32779;52.264;6.154;2022-07-21T06:06:15;30.40;;;18.63;;
47021;SDS011;32779;52.264;6.154;2022-07-21T06:08:43;33.80;;;20.48;;
47021;SDS011;32779;52.264;6.154;2022-07-21T06:11:10;29.65;;;19.13;;
47021;SDS011;32779;52.264;6.154;2022-07-21T06:13:37;31.55;;;18.70;;
47021;SDS011;32779;52.264;6.154;2022-07-21T06:16:03;33.25;;;19.38;;
47021;SDS011;32779;52.264;6.154;2022-07-21T06:18:29;29.08;;;19.38;;
47021;SDS011;32779;52.264;6.154;2022-07-21T06:20:55;35.78;;;20.13;;
47021;SDS011;32779;52.264;6.154;2022-07-21T06:23:21;38.25;;;20.35;;
47021;SDS011;32779;52.264;6.154;2022-07-21T06:25:47;37.35;;;20.90;;
47021;SDS011;32779;52.264;6.154;2022-07-21T06:28:13;36.55;;;21.75;;
47021;SDS011;32779;52.264;6.154;2022-07-21T06:30:39;41.10;;;23.45;;
47021;SDS011;32779;52.264;6.154;2022-07-21T06:33:04;40.05;;;21.90;;
47021;SDS011;32779;52.264;6.154;2022-07-21T06:35:30;35.83;;;21.73;;
47021;SDS011;32779;52.264;6.154;2022-07-21T06:37:56;36.17;;;21.33;;
47021;SDS011;32779;52.264;6.154;2022-07-21T06:40:21;39.25;;;22.13;;
47021;SDS011;32779;52.264;6.154;2022-07-21T06:42:48;38.65;;;23.85;;
47021;SDS011;32779;52.264;6.154;2022-07-21T06:45:13;40.05;;;23.02;;
47021;SDS011;32779;52.264;6.154;2022-07-21T06:47:39;40.55;;;22.35;;
47021;SDS011;32779;52.264;6.154;2022-07-21T06:50:05;41.30;;;22.55;;
47021;SDS011;32779;52.264;6.154;2022-07-21T06:52:32;37.80;;;21.95;;
47021;SDS011;32779;52.264;6.154;2022-07-21T06:55:00;45.83;;;23.25;;
47021;SDS011;32779;52.264;6.154;2022-07-21T06:57:26;40.28;;;23.08;;
47021;SDS011;32779;52.264;6.154;2022-07-21T06:59:51;41.72;;;24.20;;
47021;SDS011;32779;52.264;6.154;2022-07-21T07:02:17;40.30;;;22.38;;
47021;SDS011;32779;52.264;6.154;2022-07-21T07:04:42;37.70;;;21.98;;
47021;SDS011;32779;52.264;6.154;2022-07-21T07:07:08;42.75;;;22.42;;
47021;SDS011;32779;52.264;6.154;2022-07-21T07:09:34;36.72;;;22.13;;
47021;SDS011;32779;52.264;6.154;2022-07-21T07:12:00;39.75;;;23.23;;
47021;SDS011;32779;52.264;6.154;2022-07-21T07:14:32;38.60;;;22.23;;
47021;SDS011;32779;52.264;6.154;2022-07-21T07:16:58;38.97;;;22.55;;
47021;SDS011;32779;52.264;6.154;2022-07-21T07:19:25;36.88;;;23.15;;
47021;SDS011;32779;52.264;6.154;2022-07-21T07:21:51;38.67;;;22.48;;
47021;SDS011;32779;52.264;6.154;2022-07-21T07:24:16;42.33;;;23.40;;
47021;SDS011;32779;52.264;6.154;2022-07-21T07:26:42;43.70;;;23.48;;
47021;SDS011;32779;52.264;6.154;2022-07-21T07:29:07;39.60;;;23.88;;
47021;SDS011;32779;52.264;6.154;2022-07-21T07:31:33;42.90;;;23.92;;
47021;SDS011;32779;52.264;6.154;2022-07-21T07:33:59;37.35;;;23.23;;
47021;SDS011;32779;52.264;6.154;2022-07-21T07:36:25;38.00;;;23.80;;
47021;SDS011;32779;52.264;6.154;2022-07-21T07:38:52;36.88;;;23.42;;
47021;SDS011;32779;52.264;6.154;2022-07-21T07:41:18;31.42;;;20.75;;
47021;SDS011;32779;52.264;6.154;2022-07-21T07:43:44;34.17;;;22.92;;
47021;SDS011;32779;52.264;6.154;2022-07-21T07:46:10;35.30;;;23.08;;
47021;SDS011;32779;52.264;6.154;2022-07-21T07:48:37;33.38;;;23.30;;
47021;SDS011;32779;52.264;6.154;2022-07-21T07:51:03;37.47;;;22.65;;
47021;SDS011;32779;52.264;6.154;2022-07-21T07:53:29;35.45;;;23.75;;
47021;SDS011;32779;52.264;6.154;2022-07-21T07:55:54;34.00;;;22.65;;
47021;SDS011;32779;52.264;6.154;2022-07-21T07:58:20;35.08;;;22.17;;
47021;SDS011;32779;52.264;6.154;2022-07-21T08:00:45;34.10;;;22.55;;
47021;SDS011;32779;52.264;6.154;2022-07-21T08:03:11;33.75;;;22.38;;
47021;SDS011;32779;52.264;6.154;2022-07-21T08:05:37;35.92;;;22.85;;
47021;SDS011;32779;52.264;6.154;2022-07-21T08:08:03;34.95;;;21.38;;
47021;SDS011;32779;52.264;6.154;2022-07-21T08:10:28;29.65;;;21.40;;
47021;SDS011;32779;52.264;6.154;2022-07-21T08:12:54;29.85;;;21.02;;
47021;SDS011;32779;52.264;6.154;2022-07-21T08:15:20;36.33;;;21.60;;
47021;SDS011;32779;52.264;6.154;2022-07-21T08:17:45;33.53;;;21.55;;
47021;SDS011;32779;52.264;6.154;2022-07-21T08:20:11;36.90;;;22.20;;
47021;SDS011;32779;52.264;6.154;2022-07-21T08:22:36;32.70;;;21.25;;
47021;SDS011;32779;52.264;6.154;2022-07-21T08:25:02;30.92;;;19.10;;
47021;SDS011;32779;52.264;6.154;2022-07-21T08:27:28;29.73;;;17.73;;
47021;SDS011;32779;52.264;6.154;2022-07-21T08:29:54;32.92;;;19.17;;
47021;SDS011;32779;52.264;6.154;2022-07-21T08:32:19;27.80;;;17.73;;
47021;SDS011;32779;52.264;6.154;2022-07-21T08:34:45;27.80;;;18.30;;
47021;SDS011;32779;52.264;6.154;2022-07-21T08:37:11;28.20;;;18.17;;
47021;SDS011;32779;52.264;6.154;2022-07-21T08:39:37;26.70;;;17.75;;
47021;SDS011;32779;52.264;6.154;2022-07-21T08:42:02;25.10;;;16.63;;
47021;SDS011;32779;52.264;6.154;2022-07-21T08:44:33;24.15;;;15.70;;
47021;SDS011;32779;52.264;6.154;2022-07-21T08:46:59;23.45;;;15.48;;
47021;SDS011;32779;52.264;6.154;2022-07-21T08:49:25;31.05;;;16.77;;
47021;SDS011;32779;52.264;6.154;2022-07-21T08:51:52;22.35;;;15.35;;
47021;SDS011;32779;52.264;6.154;2022-07-21T08:54:19;22.33;;;16.23;;
47021;SDS011;32779;52.264;6.154;2022-07-21T08:56:46;28.45;;;16.70;;
47021;SDS011;32779;52.264;6.154;2022-07-21T08:59:11;25.83;;;17.38;;
47021;SDS011;32779;52.264;6.154;2022-07-21T09:01:37;22.52;;;16.10;;
47021;SDS011;32779;52.264;6.154;2022-07-21T09:06:49;22.47;;;14.90;;
47021;SDS011;32779;52.264;6.154;2022-07-21T09:09:19;29.60;;;17.25;;
47021;SDS011;32779;52.264;6.154;2022-07-21T09:11:46;24.45;;;15.73;;
47021;SDS011;32779;52.264;6.154;2022-07-21T09:14:13;27.20;;;16.63;;
47021;SDS011;32779;52.264;6.154;2022-07-21T09:16:45;21.38;;;15.65;;
47021;SDS011;32779;52.264;6.154;2022-07-21T09:21:50;23.42;;;15.20;;
47021;SDS011;32779;52.264;6.154;2022-07-21T09:24:22;24.10;;;15.82;;
47021;SDS011;32779;52.264;6.154;2022-07-21T09:27:01;26.45;;;15.82;;
47021;SDS011;32779;52.264;6.154;2022-07-21T09:29:33;22.83;;;15.93;;
47021;SDS011;32779;52.264;6.154;2022-07-21T09:32:11;23.52;;;16.50;;
47021;SDS011;32779;52.264;6.154;2022-07-21T09:35:04;25.98;;;15.20;;
47021;SDS011;32779;52.264;6.154;2022-07-21T09:37:35;21.33;;;14.45;;
47021;SDS011;32779;52.264;6.154;2022-07-21T09:40:05;22.27;;;15.32;;
47021;SDS011;32779;52.264;6.154;2022-07-21T09:42:33;21.33;;;15.05;;
47021;SDS011;32779;52.264;6.154;2022-07-21T09:45:05;27.50;;;15.65;;
47021;SDS011;32779;52.264;6.154;2022-07-21T09:47:31;24.50;;;15.27;;
47021;SDS011;32779;52.264;6.154;2022-07-21T09:49:58;24.95;;;15.02;;
47021;SDS011;32779;52.264;6.154;2022-07-21T09:52:32;22.40;;;14.05;;
47021;SDS011;32779;52.264;6.154;2022-07-21T09:55:01;25.83;;;14.30;;
47021;SDS011;32779;52.264;6.154;2022-07-21T09:57:34;23.38;;;14.40;;
47021;SDS011;32779;52.264;6.154;2022-07-21T10:00:01;25.05;;;14.95;;
47021;SDS011;32779;52.264;6.154;2022-07-21T10:02:31;25.25;;;15.32;;
47021;SDS011;32779;52.264;6.154;2022-07-21T10:05:07;20.75;;;14.10;;
47021;SDS011;32779;52.264;6.154;2022-07-21T10:07:36;24.77;;;13.75;;
47021;SDS011;32779;52.264;6.154;2022-07-21T10:10:03;29.17;;;15.00;;
47021;SDS011;32779;52.264;6.154;2022-07-21T10:12:30;26.40;;;14.95;;
47021;SDS011;32779;52.264;6.154;2022-07-21T10:14:57;24.02;;;13.88;;
47021;SDS011;32779;52.264;6.154;2022-07-21T10:17:23;23.10;;;13.45;;
47021;SDS011;32779;52.264;6.154;2022-07-21T10:20:03;25.63;;;12.25;;
47021;SDS011;32779;52.264;6.154;2022-07-21T10:25:23;23.83;;;12.40;;
47021;SDS011;32779;52.264;6.154;2022-07-21T10:30:38;20.25;;;10.45;;
47021;SDS011;32779;52.264;6.154;2022-07-21T10:33:08;20.25;;;10.60;;
47021;SDS011;32779;52.264;6.154;2022-07-21T10:35:34;15.48;;;10.15;;
47021;SDS011;32779;52.264;6.154;2022-07-21T10:38:03;15.65;;;10.30;;
47021;SDS011;32779;52.264;6.154;2022-07-21T10:40:33;12.68;;;9.07;;
47021;SDS011;32779;52.264;6.154;2022-07-21T10:48:03;11.55;;;7.00;;
47021;SDS011;32779;52.264;6.154;2022-07-21T10:50:40;6.35;;;3.97;;
47021;SDS011;32779;52.264;6.154;2022-07-21T10:53:13;4.88;;;3.05;;
47021;SDS011;32779;52.264;6.154;2022-07-21T10:55:52;3.17;;;2.40;;
47021;SDS011;32779;52.264;6.154;2022-07-21T10:58:26;2.63;;;2.30;;
47021;SDS011;32779;52.264;6.154;2022-07-21T11:01:05;3.42;;;2.45;;
47021;SDS011;32779;52.264;6.154;2022-07-21T11:03:35;5.32;;;2.70;;
47021;SDS011;32779;52.264;6.154;2022-07-21T11:06:24;4.40;;;3.08;;
47021;SDS011;32779;52.264;6.154;2022-07-21T11:11:31;5.25;;;3.83;;
47021;SDS011;32779;52.264;6.154;2022-07-21T11:22:00;7.20;;;3.30;;
47021;SDS011;32779;52.264;6.154;2022-07-21T11:24:37;4.80;;;3.22;;
47021;SDS011;32779;52.264;6.154;2022-07-21T11:27:12;4.53;;;3.17;;
47021;SDS011;32779;52.264;6.154;2022-07-21T11:29:40;4.53;;;3.10;;
47021;SDS011;32779;52.264;6.154;2022-07-21T11:32:08;4.93;;;3.13;;
47021;SDS011;32779;52.264;6.154;2022-07-21T11:37:10;4.97;;;2.80;;
47021;SDS011;32779;52.264;6.154;2022-07-21T11:39:37;5.70;;;3.17;;
47021;SDS011;32779;52.264;6.154;2022-07-21T11:42:07;3.70;;;3.15;;
47021;SDS011;32779;52.264;6.154;2022-07-21T11:44:38;10.52;;;2.65;;
47021;SDS011;32779;52.264;6.154;2022-07-21T11:47:05;3.50;;;2.83;;
47021;SDS011;32779;52.264;6.154;2022-07-21T11:49:32;3.78;;;2.90;;
47021;SDS011;32779;52.264;6.154;2022-07-21T11:52:02;4.05;;;2.70;;
47021;SDS011;32779;52.264;6.154;2022-07-21T11:57:01;4.32;;;2.80;;
47021;SDS011;32779;52.264;6.154;2022-07-21T11:59:29;4.75;;;3.40;;
47021;SDS011;32779;52.264;6.154;2022-07-21T12:02:00;3.42;;;2.55;;
47021;SDS011;32779;52.264;6.154;2022-07-21T12:04:51;3.70;;;2.15;;
47021;SDS011;32779;52.264;6.154;2022-07-21T12:10:00;1.75;;;1.40;;
47021;SDS011;32779;52.264;6.154;2022-07-21T12:12:38;1.98;;;1.50;;
47021;SDS011;32779;52.264;6.154;2022-07-21T12:15:12;3.03;;;1.75;;
47021;SDS011;32779;52.264;6.154;2022-07-21T12:20:11;1.40;;;1.25;;
47021;SDS011;32779;52.264;6.154;2022-07-21T12:22:42;1.70;;;1.50;;
47021;SDS011;32779;52.264;6.154;2022-07-21T12:25:11;1.70;;;1.48;;
47021;SDS011;32779;52.264;6.154;2022-07-21T12:27:39;1.63;;;1.42;;
47021;SDS011;32779;52.264;6.154;2022-07-21T12:30:07;1.52;;;1.30;;
47021;SDS011;32779;52.264;6.154;2022-07-21T12:32:37;1.48;;;1.30;;
47021;SDS011;32779;52.264;6.154;2022-07-21T12:35:15;1.50;;;1.30;;
47021;SDS011;32779;52.264;6.154;2022-07-21T12:38:01;1.42;;;1.33;;
47021;SDS011;32779;52.264;6.154;2022-07-21T12:40:34;1.50;;;1.40;;
47021;SDS011;32779;52.264;6.154;2022-07-21T12:43:05;2.30;;;1.63;;
47021;SDS011;32779;52.264;6.154;2022-07-21T12:48:38;2.65;;;1.30;;
47021;SDS011;32779;52.264;6.154;2022-07-21T12:53:29;1.30;;;1.20;;
47021;SDS011;32779;52.264;6.154;2022-07-21T12:55:56;1.35;;;1.17;;
47021;SDS011;32779;52.264;6.154;2022-07-21T12:58:22;3.85;;;1.45;;
47021;SDS011;32779;52.264;6.154;2022-07-21T13:00:48;1.70;;;1.55;;
47021;SDS011;32779;52.264;6.154;2022-07-21T13:03:14;2.30;;;1.83;;
47021;SDS011;32779;52.264;6.154;2022-07-21T13:05:40;3.15;;;2.00;;
47021;SDS011;32779;52.264;6.154;2022-07-21T13:08:05;1.98;;;1.80;;
47021;SDS011;32779;52.264;6.154;2022-07-21T13:10:31;2.10;;;1.70;;
47021;SDS011;32779;52.264;6.154;2022-07-21T13:12:57;2.10;;;2.00;;
47021;SDS011;32779;52.264;6.154;2022-07-21T13:15:22;2.75;;;2.08;;
47021;SDS011;32779;52.264;6.154;2022-07-21T13:17:48;1.85;;;1.75;;
47021;SDS011;32779;52.264;6.154;2022-07-21T13:20:14;2.45;;;1.95;;
47021;SDS011;32779;52.264;6.154;2022-07-21T13:22:40;1.73;;;1.63;;
47021;SDS011;32779;52.264;6.154;2022-07-21T13:25:06;1.83;;;1.70;;
47021;SDS011;32779;52.264;6.154;2022-07-21T13:27:33;4.28;;;1.80;;
47021;SDS011;32779;52.264;6.154;2022-07-21T13:29:59;1.88;;;1.77;;
47021;SDS011;32779;52.264;6.154;2022-07-21T13:32:26;3.88;;;2.30;;
47021;SDS011;32779;52.264;6.154;2022-07-21T13:34:52;5.43;;;2.20;;
47021;SDS011;32779;52.264;6.154;2022-07-21T13:37:17;5.43;;;1.77;;
47021;SDS011;32779;52.264;6.154;2022-07-21T13:39:43;2.80;;;2.55;;
47021;SDS011;32779;52.264;6.154;2022-07-21T13:42:08;2.33;;;1.98;;
47021;SDS011;32779;52.264;6.154;2022-07-21T13:44:34;2.58;;;2.17;;
47021;SDS011;32779;52.264;6.154;2022-07-21T13:47:00;2.10;;;1.85;;
47021;SDS011;32779;52.264;6.154;2022-07-21T13:49:26;2.60;;;1.75;;
47021;SDS011;32779;52.264;6.154;2022-07-21T13:51:52;2.00;;;1.80;;
47021;SDS011;32779;52.264;6.154;2022-07-21T13:54:18;3.47;;;2.40;;
47021;SDS011;32779;52.264;6.154;2022-07-21T13:56:44;2.10;;;1.80;;
47021;SDS011;32779;52.264;6.154;2022-07-21T13:59:10;2.40;;;2.10;;
47021;SDS011;32779;52.264;6.154;2022-07-21T14:01:36;2.50;;;2.00;;
47021;SDS011;32779;52.264;6.154;2022-07-21T14:04:01;2.42;;;1.70;;
47021;SDS011;32779;52.264;6.154;2022-07-21T14:06:27;1.95;;;1.70;;
47021;SDS011;32779;52.264;6.154;2022-07-21T14:08:53;1.65;;;1.52;;
47021;SDS011;32779;52.264;6.154;2022-07-21T14:11:18;3.10;;;1.55;;
47021;SDS011;32779;52.264;6.154;2022-07-21T14:13:44;1.90;;;1.52;;
47021;SDS011;32779;52.264;6.154;2022-07-21T14:16:10;1.73;;;1.23;;
47021;SDS011;32779;52.264;6.154;2022-07-21T14:18:36;1.90;;;1.40;;
47021;SDS011;32779;52.264;6.154;2022-07-21T14:21:02;2.92;;;1.70;;
47021;SDS011;32779;52.264;6.154;2022-07-21T14:23:28;2.08;;;1.60;;
47021;SDS011;32779;52.264;6.154;2022-07-21T14:25:53;2.40;;;1.77;;
47021;SDS011;32779;52.264;6.154;2022-07-21T14:28:19;1.60;;;1.50;;
47021;SDS011;32779;52.264;6.154;2022-07-21T14:30:45;1.52;;;1.42;;
47021;SDS011;32779;52.264;6.154;2022-07-21T14:33:11;1.60;;;1.50;;
47021;SDS011;32779;52.264;6.154;2022-07-21T14:35:36;1.90;;;1.48;;
47021;SDS011;32779;52.264;6.154;2022-07-21T14:38:02;2.53;;;1.40;;
47021;SDS011;32779;52.264;6.154;2022-07-21T14:40:28;1.70;;;1.60;;
47021;SDS011;32779;52.264;6.154;2022-07-21T14:42:53;1.60;;;1.50;;
47021;SDS011;32779;52.264;6.154;2022-07-21T14:45:20;2.00;;;1.80;;
47021;SDS011;32779;52.264;6.154;2022-07-21T14:47:46;2.38;;;1.58;;
47021;SDS011;32779;52.264;6.154;2022-07-21T14:50:13;3.78;;;1.55;;
47021;SDS011;32779;52.264;6.154;2022-07-21T14:52:39;2.03;;;1.75;;
47021;SDS011;32779;52.264;6.154;2022-07-21T14:55:05;1.70;;;1.60;;
47021;SDS011;32779;52.264;6.154;2022-07-21T14:57:31;3.97;;;2.00;;
47021;SDS011;32779;52.264;6.154;2022-07-21T14:59:57;2.10;;;1.90;;
47021;SDS011;32779;52.264;6.154;2022-07-21T15:02:22;3.60;;;1.92;;
47021;SDS011;32779;52.264;6.154;2022-07-21T15:04:48;2.67;;;1.80;;
47021;SDS011;32779;52.264;6.154;2022-07-21T15:07:14;2.47;;;1.88;;
47021;SDS011;32779;52.264;6.154;2022-07-21T15:09:40;4.88;;;2.08;;
47021;SDS011;32779;52.264;6.154;2022-07-21T15:12:06;2.70;;;1.92;;